createdAt,value
2022-09-09T00:00:31.016Z,16.54
2022-09-09T00:03:08.866Z,16.42
2022-09-09T00:05:45.437Z,16.39
2022-09-09T00:08:23.557Z,16.38
2022-09-09T00:11:00.704Z,16.35
2022-09-09T00:13:36.784Z,16.32
2022-09-09T00:16:15.020Z,16.21
2022-09-09T00:18:57.508Z,16.14
2022-09-09T00:21:36.244Z,16.13
2022-09-09T00:24:14.956Z,16.10
2022-09-09T00:26:47.770Z,16.09
2022-09-09T00:29:25.350Z,16.05
2022-09-09T00:32:00.597Z,16.03
2022-09-09T00:34:32.021Z,16.00
2022-09-09T00:37:00.893Z,16.00
2022-09-09T00:39:36.237Z,15.94
2022-09-09T00:42:16.647Z,16.01
2022-09-09T00:45:00.464Z,15.96
2022-09-09T00:47:47.270Z,15.93
2022-09-09T00:50:34.873Z,15.95
2022-09-09T00:53:19.761Z,16.00
2022-09-09T00:55:55.097Z,16.01
2022-09-09T00:58:23.384Z,16.01
2022-09-09T01:00:58.940Z,15.97
2022-09-09T01:03:36.808Z,15.98
2022-09-09T01:06:18.606Z,15.92
2022-09-09T01:09:18.028Z,15.93
2022-09-09T01:11:57.819Z,15.92
2022-09-09T01:14:45.163Z,15.90
2022-09-09T01:17:20.595Z,15.89
2022-09-09T01:20:06.658Z,15.94
2022-09-09T01:22:55.193Z,15.95
2022-09-09T01:25:32.255Z,16.00
2022-09-09T01:28:19.461Z,16.04
2022-09-09T01:30:48.457Z,16.08
2022-09-09T01:33:20.877Z,16.11
2022-09-09T01:35:55.339Z,16.09
2022-09-09T01:38:26.891Z,16.08
2022-09-09T01:40:56.200Z,16.07
2022-09-09T01:43:32.537Z,16.04
2022-09-09T01:46:04.031Z,16.02
2022-09-09T01:48:34.505Z,16.00
2022-09-09T01:51:11.433Z,16.03
2022-09-09T01:56:58.859Z,16.01
2022-09-09T02:00:01.263Z,16.01
2022-09-09T02:02:36.376Z,16.02
2022-09-09T02:05:33.177Z,15.96
2022-09-09T02:08:09.401Z,15.99
2022-09-09T02:10:55.890Z,15.99
2022-09-09T02:13:40.551Z,16.04
2022-09-09T02:16:21.414Z,16.02
2022-09-09T02:18:55.896Z,16.03
2022-09-09T02:21:35.972Z,16.06
2022-09-09T02:24:10.821Z,16.00
2022-09-09T02:26:48.031Z,15.95
2022-09-09T02:29:22.313Z,15.92
2022-09-09T02:31:54.720Z,15.93
2022-09-09T02:34:28.646Z,15.93
2022-09-09T02:37:00.725Z,15.95
2022-09-09T02:39:28.966Z,15.90
2022-09-09T02:41:57.715Z,15.90
2022-09-09T02:44:32.752Z,15.86
2022-09-09T02:47:32.313Z,15.83
2022-09-09T02:50:14.915Z,15.83
2022-09-09T02:52:56.956Z,15.83
2022-09-09T02:55:33.625Z,15.81
2022-09-09T02:58:06.948Z,15.82
2022-09-09T03:00:37.533Z,15.80
2022-09-09T03:03:07.898Z,15.80
2022-09-09T03:05:36.588Z,15.81
2022-09-09T03:08:06.464Z,15.80
2022-09-09T03:10:35.675Z,15.81
2022-09-09T03:13:06.347Z,15.82
2022-09-09T03:15:39.046Z,15.82
2022-09-09T03:18:10.540Z,15.79
2022-09-09T03:20:38.989Z,15.78
2022-09-09T03:23:09.575Z,15.78
2022-09-09T03:25:41.642Z,15.74
2022-09-09T03:28:09.889Z,15.69
2022-09-09T03:30:38.658Z,15.63
2022-09-09T03:33:07.353Z,15.60
2022-09-09T03:35:37.064Z,15.57
2022-09-09T03:38:05.612Z,15.56
2022-09-09T03:40:36.118Z,15.48
2022-09-09T03:43:04.530Z,15.41
2022-09-09T03:45:33.014Z,15.40
2022-09-09T03:48:01.796Z,15.36
2022-09-09T03:50:31.259Z,15.29
2022-09-09T03:53:00.900Z,15.33
2022-09-09T03:55:29.153Z,15.26
2022-09-09T03:57:57.632Z,15.25
2022-09-09T04:00:25.991Z,15.27
2022-09-09T04:02:56.640Z,15.24
2022-09-09T04:05:25.109Z,15.27
2022-09-09T04:07:53.439Z,15.23
2022-09-09T04:10:24.478Z,15.23
2022-09-09T04:12:54.639Z,15.22
2022-09-09T04:15:23.616Z,15.20
2022-09-09T04:17:52.304Z,15.23
2022-09-09T04:20:20.752Z,15.27
2022-09-09T04:22:48.922Z,15.28
2022-09-09T04:25:17.818Z,15.25
2022-09-09T04:27:48.549Z,15.24
2022-09-09T04:30:17.181Z,15.25
2022-09-09T04:32:45.714Z,15.18
2022-09-09T04:35:13.938Z,15.21
2022-09-09T04:37:42.869Z,15.23
2022-09-09T04:40:12.107Z,15.18
2022-09-09T04:42:45.020Z,15.11
2022-09-09T04:45:17.149Z,15.09
2022-09-09T04:47:45.445Z,15.08
2022-09-09T04:50:13.900Z,15.05
2022-09-09T04:52:43.407Z,15.00
2022-09-09T04:55:11.987Z,14.99
2022-09-09T04:57:40.283Z,14.98
2022-09-09T05:00:11.205Z,14.92
2022-09-09T05:02:43.584Z,14.91
2022-09-09T05:05:13.259Z,14.84
2022-09-09T05:07:42.758Z,14.86
2022-09-09T05:10:11.646Z,14.88
2022-09-09T05:12:39.981Z,14.87
2022-09-09T05:15:10.610Z,14.86
2022-09-09T05:17:39.635Z,14.85
2022-09-09T05:20:15.565Z,14.87
2022-09-09T05:22:45.913Z,14.80
2022-09-09T05:25:14.213Z,14.82
2022-09-09T05:27:42.478Z,14.80
2022-09-09T05:30:12.277Z,14.81
2022-09-09T05:32:41.230Z,14.81
2022-09-09T05:35:11.303Z,14.86
2022-09-09T05:37:41.199Z,14.92
2022-09-09T05:40:12.101Z,14.89
2022-09-09T05:42:40.842Z,14.89
2022-09-09T05:45:10.873Z,14.93
2022-09-09T05:47:40.543Z,14.95
2022-09-09T05:50:14.811Z,14.98
2022-09-09T05:52:43.013Z,14.98
2022-09-09T05:55:11.406Z,15.07
2022-09-09T05:57:40.221Z,15.14
2022-09-09T06:00:11.258Z,15.21
2022-09-09T06:02:42.729Z,15.16
2022-09-09T06:05:16.157Z,15.14
2022-09-09T06:07:45.696Z,15.18
2022-09-09T06:10:15.459Z,15.14
2022-09-09T06:12:43.744Z,15.14
2022-09-09T06:15:12.554Z,15.18
2022-09-09T06:17:42.672Z,15.18
2022-09-09T06:20:11.998Z,15.22
2022-09-09T06:22:42.999Z,15.21
2022-09-09T06:25:12.056Z,15.25
2022-09-09T06:27:41.655Z,15.31
2022-09-09T06:30:12.139Z,15.43
2022-09-09T06:32:40.639Z,15.38
2022-09-09T06:35:10.251Z,15.43
2022-09-09T06:37:38.640Z,15.44
2022-09-09T06:40:10.194Z,15.48
2022-09-09T06:42:39.863Z,15.49
2022-09-09T06:45:24.599Z,15.47
2022-09-09T06:47:58.173Z,15.54
2022-09-09T06:50:26.813Z,15.58
2022-09-09T06:52:55.142Z,15.63
2022-09-09T06:55:25.281Z,15.65
2022-09-09T06:57:53.530Z,15.71
2022-09-09T07:00:25.514Z,15.69
2022-09-09T07:02:53.758Z,15.74
2022-09-09T07:05:22.667Z,15.77
2022-09-09T07:07:51.224Z,15.78
2022-09-09T07:10:21.295Z,15.79
2022-09-09T07:12:54.308Z,15.83
2022-09-09T07:15:25.795Z,15.88
2022-09-09T07:17:54.929Z,15.93
2022-09-09T07:20:23.423Z,15.95
2022-09-09T07:22:52.421Z,16.01
2022-09-09T07:25:21.966Z,16.11
2022-09-09T07:27:50.569Z,16.17
2022-09-09T07:30:24.323Z,16.17
2022-09-09T07:32:58.080Z,16.14
2022-09-09T07:35:27.936Z,16.12
2022-09-09T07:37:56.376Z,16.17
2022-09-09T07:40:25.508Z,16.19
2022-09-09T07:42:54.700Z,16.30
2022-09-09T07:45:24.799Z,16.39
2022-09-09T07:47:53.786Z,16.43
2022-09-09T07:50:22.620Z,16.47
2022-09-09T07:52:52.495Z,16.53
2022-09-09T07:55:21.000Z,16.66
2022-09-09T07:57:49.698Z,16.65
2022-09-09T08:00:20.404Z,16.63
2022-09-09T08:02:55.046Z,16.71
2022-09-09T08:05:24.554Z,16.80
2022-09-09T08:07:52.872Z,16.83
2022-09-09T08:10:21.586Z,16.87
2022-09-09T08:13:07.699Z,16.98
2022-09-09T08:15:39.761Z,17.12
2022-09-09T08:18:09.893Z,17.16
2022-09-09T08:20:39.442Z,17.26
2022-09-09T08:23:08.514Z,17.33
2022-09-09T08:25:37.244Z,17.47
2022-09-09T08:28:05.610Z,17.47
2022-09-09T08:30:34.181Z,17.47
2022-09-09T08:33:02.672Z,17.54
2022-09-09T08:35:33.519Z,17.74
2022-09-09T08:38:04.627Z,17.75
2022-09-09T08:40:46.824Z,17.77
2022-09-09T08:43:18.463Z,17.87
2022-09-09T08:45:58.289Z,17.95
2022-09-09T08:48:46.433Z,17.93
2022-09-09T08:51:16.426Z,18.03
2022-09-09T08:53:50.393Z,18.21
2022-09-09T08:56:23.985Z,18.37
2022-09-09T08:58:58.017Z,18.47
2022-09-09T09:01:54.803Z,18.69
2022-09-09T09:04:49.909Z,18.84
2022-09-09T09:07:36.028Z,18.88
2022-09-09T09:10:40.420Z,18.98
2022-09-09T09:13:18.110Z,19.11
2022-09-09T09:15:52.733Z,19.15
2022-09-09T09:18:21.501Z,19.18
2022-09-09T09:21:01.232Z,19.14
2022-09-09T09:23:42.324Z,19.11
2022-09-09T09:26:12.955Z,19.19
2022-09-09T09:28:42.860Z,19.21
2022-09-09T09:31:16.450Z,19.13
2022-09-09T09:33:53.963Z,19.05
2022-09-09T09:36:36.388Z,18.99
2022-09-09T09:42:06.401Z,18.80
2022-09-09T09:44:38.120Z,18.65
2022-09-09T09:47:16.116Z,18.61
2022-09-09T09:49:55.145Z,18.52
2022-09-09T09:52:26.508Z,18.44
2022-09-09T09:55:02.757Z,18.43
2022-09-09T09:57:35.145Z,18.42
2022-09-09T10:00:17.655Z,18.48
2022-09-09T10:02:53.532Z,18.52
2022-09-09T10:05:35.044Z,18.60
2022-09-09T10:08:15.098Z,18.67
2022-09-09T10:11:18.711Z,18.89
2022-09-09T10:13:59.336Z,19.04
2022-09-09T10:16:41.056Z,19.14
2022-09-09T10:19:16.311Z,19.30
2022-09-09T10:22:12.112Z,19.42
2022-09-09T10:25:22.242Z,19.39
2022-09-09T10:28:27.644Z,19.47
2022-09-09T10:31:10.814Z,19.58
2022-09-09T10:33:51.022Z,19.59
2022-09-09T10:36:23.400Z,19.74
2022-09-09T10:39:00.307Z,19.77
2022-09-09T10:41:47.224Z,19.84
2022-09-09T10:44:30.314Z,19.95
2022-09-09T10:47:27.831Z,20.09
2022-09-09T10:50:20.921Z,20.19
2022-09-09T10:53:02.401Z,20.33
2022-09-09T10:55:40.148Z,20.34
2022-09-09T10:58:12.735Z,20.25
2022-09-09T11:00:47.992Z,20.24
2022-09-09T11:03:25.985Z,20.27
2022-09-09T11:06:00.054Z,20.32
2022-09-09T11:08:31.681Z,20.36
2022-09-09T11:11:05.500Z,20.43
2022-09-09T11:13:42.133Z,20.45
2022-09-09T11:16:25.153Z,20.43
2022-09-09T11:19:00.824Z,20.40
2022-09-09T11:21:33.365Z,20.19
2022-09-09T11:24:07.341Z,20.02
2022-09-09T11:26:41.922Z,19.94
2022-09-09T11:29:35.544Z,19.70
2022-09-09T11:32:27.267Z,19.65
2022-09-09T11:35:05.500Z,19.50
2022-09-09T11:38:04.982Z,19.37
2022-09-09T11:40:35.990Z,19.26
2022-09-09T11:43:07.853Z,19.20
2022-09-09T11:45:38.160Z,19.14
2022-09-09T11:48:26.661Z,19.04
2022-09-09T11:51:10.080Z,18.98
2022-09-09T11:53:51.971Z,18.96
2022-09-09T11:56:31.765Z,18.80
2022-09-09T11:59:06.537Z,18.84
2022-09-09T12:01:42.556Z,18.91
2022-09-09T12:04:30.326Z,18.96
2022-09-09T12:07:03.474Z,18.97
2022-09-09T12:09:44.643Z,18.93
2022-09-09T12:12:30.262Z,19.02
2022-09-09T12:15:21.691Z,19.13
2022-09-09T12:17:52.480Z,19.22
2022-09-09T12:20:24.890Z,19.16
2022-09-09T12:23:23.891Z,19.17
2022-09-09T12:26:09.773Z,19.30
2022-09-09T12:28:55.241Z,19.47
2022-09-09T12:31:31.561Z,19.48
2022-09-09T12:34:12.835Z,19.82
2022-09-09T12:36:47.855Z,20.16
2022-09-09T12:39:25.309Z,20.35
2022-09-09T12:41:58.275Z,20.49
2022-09-09T12:44:28.979Z,20.82
2022-09-09T12:47:01.326Z,20.74
2022-09-09T12:49:35.801Z,20.58
2022-09-09T12:52:08.919Z,20.57
2022-09-09T12:54:38.688Z,20.46
2022-09-09T12:57:11.416Z,20.40
2022-09-09T12:59:42.916Z,20.48
2022-09-09T13:02:23.079Z,20.41
2022-09-09T13:04:52.595Z,20.75
2022-09-09T13:07:23.601Z,21.19
2022-09-09T13:09:52.113Z,21.54
2022-09-09T13:12:23.929Z,21.64
2022-09-09T13:14:57.028Z,21.53
2022-09-09T13:17:29.830Z,21.55
2022-09-09T13:19:58.521Z,21.71
2022-09-09T13:22:34.562Z,21.60
2022-09-09T13:25:06.912Z,21.43
2022-09-09T13:27:39.827Z,21.38
2022-09-09T13:30:24.901Z,21.29
2022-09-09T13:33:21.668Z,21.22
2022-09-09T13:35:55.546Z,21.15
2022-09-09T13:38:30.558Z,21.28
2022-09-09T13:41:05.561Z,21.71
2022-09-09T13:43:38.983Z,22.06
2022-09-09T13:46:27.867Z,22.59
2022-09-09T13:48:57.726Z,22.90
2022-09-09T13:51:37.969Z,22.94
2022-09-09T13:54:11.111Z,22.82
2022-09-09T13:56:41.189Z,22.59
2022-09-09T13:59:14.692Z,22.46
2022-09-09T14:01:43.447Z,22.32
2022-09-09T14:04:12.193Z,22.19
2022-09-09T14:06:42.134Z,22.13
2022-09-09T14:09:16.671Z,22.51
2022-09-09T14:11:46.362Z,22.90
2022-09-09T14:14:14.716Z,23.09
2022-09-09T14:16:46.418Z,22.92
2022-09-09T14:19:14.858Z,22.89
2022-09-09T14:21:43.608Z,23.14
2022-09-09T14:24:13.276Z,23.36
2022-09-09T14:26:41.743Z,23.68
2022-09-09T14:29:10.125Z,24.01
2022-09-09T14:31:38.503Z,23.70
2022-09-09T14:34:07.087Z,23.44
2022-09-09T14:36:35.568Z,23.39
2022-09-09T14:39:03.923Z,23.51
2022-09-09T14:41:33.570Z,23.60
2022-09-09T14:44:02.048Z,23.98
2022-09-09T14:46:30.567Z,24.27
2022-09-09T14:48:58.913Z,24.29
2022-09-09T14:51:29.302Z,23.96
2022-09-09T14:54:00.321Z,23.59
2022-09-09T14:56:31.933Z,23.60
2022-09-09T14:59:02.908Z,23.48
2022-09-09T15:01:32.682Z,23.46
2022-09-09T15:04:04.213Z,23.43
2022-09-09T15:06:35.458Z,23.77
2022-09-09T15:09:04.507Z,24.03
2022-09-09T15:11:38.634Z,24.08
2022-09-09T15:14:10.074Z,23.75
2022-09-09T15:16:39.171Z,23.47
2022-09-09T15:19:07.625Z,23.22
2022-09-09T15:21:38.048Z,22.97
2022-09-09T15:24:09.194Z,22.86
2022-09-09T15:26:39.341Z,22.85
2022-09-09T15:29:09.693Z,22.94
2022-09-09T15:31:39.138Z,22.90
2022-09-09T15:34:09.323Z,22.96
2022-09-09T15:36:39.352Z,22.87
2022-09-09T15:39:10.580Z,22.90
2022-09-09T15:41:38.881Z,23.08
2022-09-09T15:44:08.750Z,23.23
2022-09-09T15:46:39.815Z,23.30
2022-09-09T15:49:11.499Z,23.36
2022-09-09T15:51:43.668Z,23.40
2022-09-09T15:54:14.698Z,23.33
2022-09-09T15:56:44.046Z,23.28
2022-09-09T15:59:14.556Z,23.20
2022-09-09T16:01:44.288Z,23.07
2022-09-09T16:04:13.415Z,22.99
2022-09-09T16:06:41.765Z,22.90
2022-09-09T16:09:11.220Z,22.80
2022-09-09T16:11:40.816Z,22.83
2022-09-09T16:14:09.606Z,22.81
2022-09-09T16:16:39.607Z,22.75
2022-09-09T16:19:11.606Z,22.74
2022-09-09T16:21:42.707Z,22.65
2022-09-09T16:24:14.504Z,22.42
2022-09-09T16:26:46.629Z,22.43
2022-09-09T16:29:16.619Z,22.36
2022-09-09T16:31:47.709Z,22.30
2022-09-09T16:34:17.153Z,22.02
2022-09-09T16:36:46.482Z,21.92
2022-09-09T16:39:16.911Z,21.55
2022-09-09T16:41:48.448Z,21.17
2022-09-09T16:44:19.179Z,21.08
2022-09-09T16:46:55.566Z,20.88
2022-09-09T16:49:25.172Z,20.71
2022-09-09T16:51:54.650Z,20.58
2022-09-09T16:54:24.333Z,20.55
2022-09-09T16:56:52.945Z,20.59
2022-09-09T16:59:23.456Z,20.49
2022-09-09T17:01:54.454Z,20.34
2022-09-09T17:04:25.200Z,20.27
2022-09-09T17:06:55.420Z,20.34
2022-09-09T17:09:25.148Z,20.27
2022-09-09T17:11:54.035Z,20.18
2022-09-09T17:14:24.960Z,20.09
2022-09-09T17:16:54.798Z,20.10
2022-09-09T17:19:23.033Z,20.09
2022-09-09T17:22:16.703Z,20.11
2022-09-09T17:24:41.296Z,20.10
2022-09-09T17:27:09.886Z,20.08
2022-09-09T17:29:38.595Z,19.84
2022-09-09T17:32:09.067Z,19.77
2022-09-09T17:34:38.892Z,19.78
2022-09-09T17:37:07.738Z,19.82
2022-09-09T17:39:36.496Z,19.87
2022-09-09T17:42:05.375Z,19.92
2022-09-09T17:44:34.145Z,19.92
2022-09-09T17:47:04.973Z,19.88
2022-09-09T17:49:34.639Z,19.68
2022-09-09T17:52:03.439Z,19.67
2022-09-09T17:54:31.673Z,19.53
2022-09-09T17:57:00.285Z,19.49
2022-09-09T17:59:28.741Z,19.42
2022-09-09T18:01:57.802Z,19.34
2022-09-09T18:04:26.396Z,19.26
2022-09-09T18:06:56.357Z,19.14
2022-09-09T18:09:27.300Z,18.99
2022-09-09T18:11:57.658Z,18.92
2022-09-09T18:14:31.072Z,18.85
2022-09-09T18:17:00.742Z,18.73
2022-09-09T18:19:31.953Z,18.69
2022-09-09T18:22:02.973Z,18.71
2022-09-09T18:24:32.893Z,18.67
2022-09-09T18:27:01.261Z,18.68
2022-09-09T18:29:29.832Z,18.70
2022-09-09T18:31:58.374Z,18.68
2022-09-09T18:34:28.689Z,18.64
2022-09-09T18:36:57.585Z,18.55
2022-09-09T18:39:29.587Z,18.54
2022-09-09T18:42:00.328Z,18.45
2022-09-09T18:44:31.715Z,18.43
2022-09-09T18:47:00.828Z,18.44
2022-09-09T18:49:31.037Z,18.47
2022-09-09T18:51:59.310Z,18.52
2022-09-09T18:54:33.118Z,18.61
2022-09-09T18:57:01.706Z,18.60
2022-09-09T18:59:30.703Z,18.68
2022-09-09T19:01:59.743Z,18.71
2022-09-09T19:04:28.252Z,18.75
2022-09-09T19:06:58.616Z,18.80
2022-09-09T19:09:33.834Z,18.84
2022-09-09T19:12:03.233Z,18.89
2022-09-09T19:14:31.878Z,18.86
2022-09-09T19:17:00.666Z,18.85
2022-09-09T19:19:32.016Z,18.83
2022-09-09T19:22:01.648Z,18.83
2022-09-09T19:24:33.695Z,18.79
2022-09-09T19:27:06.543Z,18.79
2022-09-09T19:29:39.321Z,18.69
2022-09-09T19:34:56.357Z,18.67
2022-09-09T19:37:24.680Z,18.52
2022-09-09T19:39:54.384Z,18.40
2022-09-09T19:42:22.815Z,18.29
2022-09-09T19:44:51.144Z,18.25
2022-09-09T19:47:20.177Z,18.25
2022-09-09T19:49:48.645Z,18.24
2022-09-09T19:52:17.716Z,18.21
2022-09-09T19:54:46.632Z,18.22
2022-09-09T19:57:16.652Z,18.23
2022-09-09T19:59:45.042Z,18.27
2022-09-09T20:02:15.686Z,18.23
2022-09-09T20:04:44.440Z,18.26
2022-09-09T20:07:12.847Z,18.19
2022-09-09T20:09:41.239Z,18.18
2022-09-09T20:12:10.065Z,18.15
2022-09-09T20:14:40.250Z,18.07
2022-09-09T20:17:10.005Z,18.01
2022-09-09T20:19:39.710Z,18.03
2022-09-09T20:22:08.102Z,17.93
2022-09-09T20:24:37.612Z,17.96
2022-09-09T20:27:07.983Z,17.88
2022-09-09T20:29:37.392Z,17.84
2022-09-09T20:32:07.540Z,17.77
2022-09-09T20:34:36.766Z,17.71
2022-09-09T20:37:05.853Z,17.67
2022-09-09T20:39:35.656Z,17.64
2022-09-09T20:42:04.450Z,17.67
2022-09-09T20:44:33.203Z,17.61
2022-09-09T20:47:06.332Z,17.46
2022-09-09T20:49:36.149Z,17.37
2022-09-09T20:52:04.815Z,17.34
2022-09-09T20:54:35.117Z,17.33
2022-09-09T20:57:03.409Z,17.31
2022-09-09T20:59:32.175Z,17.24
2022-09-09T21:02:00.848Z,17.21
2022-09-09T21:04:29.845Z,17.19
2022-09-09T21:06:59.510Z,17.16
2022-09-09T21:09:27.826Z,17.14
2022-09-09T21:11:56.103Z,17.07
2022-09-09T21:14:24.509Z,17.09
2022-09-09T21:16:53.074Z,17.04
2022-09-09T21:19:21.562Z,17.03
2022-09-09T21:21:49.833Z,17.01
2022-09-09T21:24:19.941Z,17.02
2022-09-09T21:26:49.461Z,16.94
2022-09-09T21:29:17.731Z,16.91
2022-09-09T21:31:46.481Z,16.90
2022-09-09T21:34:15.334Z,16.90
2022-09-09T21:36:43.844Z,16.88
2022-09-09T21:39:12.266Z,16.85
2022-09-09T21:41:41.968Z,16.84
2022-09-09T21:44:14.476Z,16.80
2022-09-09T21:46:44.282Z,16.77
2022-09-09T21:49:12.861Z,16.76
2022-09-09T21:51:41.456Z,16.70
2022-09-09T21:54:10.159Z,16.67
2022-09-09T21:56:39.497Z,16.73
2022-09-09T21:59:09.176Z,16.69
2022-09-09T22:01:37.528Z,16.68
2022-09-09T22:04:05.825Z,16.67
2022-09-09T22:06:34.173Z,16.57
2022-09-09T22:09:03.404Z,16.57
2022-09-09T22:11:31.839Z,16.56
2022-09-09T22:14:00.509Z,16.51
2022-09-09T22:16:31.596Z,16.54
2022-09-09T22:19:01.750Z,16.52
2022-09-09T22:21:33.933Z,16.48
2022-09-09T22:24:05.095Z,16.44
2022-09-09T22:26:36.329Z,16.54
2022-09-09T22:29:05.910Z,16.55
2022-09-09T22:31:37.006Z,16.52
2022-09-09T22:34:06.744Z,16.49
2022-09-09T22:36:35.183Z,16.46
2022-09-09T22:39:03.465Z,16.41
2022-09-09T22:41:31.997Z,16.42
2022-09-09T22:44:00.565Z,16.45
2022-09-09T22:46:29.121Z,16.46
2022-09-09T22:48:59.235Z,16.44
2022-09-09T22:51:27.533Z,16.45
2022-09-09T22:53:57.172Z,16.39
2022-09-09T22:56:25.467Z,16.38
2022-09-09T22:58:56.205Z,16.37
2022-09-09T23:01:26.848Z,16.39
2022-09-09T23:03:59.129Z,16.37
2022-09-09T23:06:31.678Z,16.40
2022-09-09T23:09:02.872Z,16.35
2022-09-09T23:11:35.036Z,16.41
2022-09-09T23:14:06.787Z,16.48
2022-09-09T23:16:39.481Z,16.51
2022-09-09T23:19:12.050Z,16.47
2022-09-09T23:21:41.864Z,16.32
2022-09-09T23:24:12.890Z,16.24
2022-09-09T23:26:43.368Z,16.08
2022-09-09T23:29:14.706Z,16.00
2022-09-09T23:31:45.134Z,15.92
2022-09-09T23:34:14.230Z,15.86
2022-09-09T23:36:43.912Z,15.73
2022-09-09T23:39:14.091Z,15.77
2022-09-09T23:41:42.669Z,15.78
2022-09-09T23:44:12.746Z,15.82
2022-09-09T23:46:41.351Z,15.87
2022-09-09T23:49:10.034Z,15.90
2022-09-09T23:51:39.383Z,15.95
2022-09-09T23:54:09.954Z,15.93
2022-09-09T23:56:41.300Z,15.92
2022-09-09T23:59:09.875Z,15.76
